sensor_id;sensor_type;location;lat;lon;timestamp;temperature;humidity
69626;DHT22;56847;51.984;5.088;2023-03-23T00:01:27;13.90;82.20
69626;DHT22;56847;51.984;5.088;2023-03-23T00:03:57;13.90;82.40
69626;DHT22;56847;51.984;5.088;2023-03-23T00:06:26;13.90;82.40
69626;DHT22;56847;51.984;5.088;2023-03-23T00:08:53;13.90;82.30
69626;DHT22;56847;51.984;5.088;2023-03-23T00:11:29;13.90;82.30
69626;DHT22;56847;51.984;5.088;2023-03-23T00:13:57;13.90;82.30
69626;DHT22;56847;51.984;5.088;2023-03-23T00:16:25;13.90;82.10
69626;DHT22;56847;51.984;5.088;2023-03-23T00:19:08;13.90;82.20
69626;DHT22;56847;51.984;5.088;2023-03-23T00:21:36;13.90;82.00
69626;DHT22;56847;51.984;5.088;2023-03-23T00:24:09;13.90;81.80
69626;DHT22;56847;51.984;5.088;2023-03-23T00:26:38;13.90;81.80
69626;DHT22;56847;51.984;5.088;2023-03-23T00:31:41;13.90;81.70
69626;DHT22;56847;51.984;5.088;2023-03-23T00:34:22;13.90;81.60
69626;DHT22;56847;51.984;5.088;2023-03-23T00:36:52;13.90;81.60
69626;DHT22;56847;51.984;5.088;2023-03-23T00:39:23;13.90;81.50
69626;DHT22;56847;51.984;5.088;2023-03-23T00:41:51;13.90;81.60
69626;DHT22;56847;51.984;5.088;2023-03-23T00:44:17;14.00;81.10
69626;DHT22;56847;51.984;5.088;2023-03-23T00:46:44;14.00;81.20
69626;DHT22;56847;51.984;5.088;2023-03-23T00:49:19;14.00;81.40
69626;DHT22;56847;51.984;5.088;2023-03-23T00:51:45;14.00;81.00
69626;DHT22;56847;51.984;5.088;2023-03-23T00:54:12;14.00;81.30
69626;DHT22;56847;51.984;5.088;2023-03-23T00:56:38;14.00;81.30
69626;DHT22;56847;51.984;5.088;2023-03-23T00:59:07;14.10;81.10
69626;DHT22;56847;51.984;5.088;2023-03-23T01:01:36;14.10;81.30
69626;DHT22;56847;51.984;5.088;2023-03-23T01:04:03;14.10;80.90
69626;DHT22;56847;51.984;5.088;2023-03-23T01:06:34;14.10;81.10
69626;DHT22;56847;51.984;5.088;2023-03-23T01:09:12;14.10;81.20
69626;DHT22;56847;51.984;5.088;2023-03-23T01:11:43;14.10;81.10
69626;DHT22;56847;51.984;5.088;2023-03-23T01:14:10;14.10;80.70
69626;DHT22;56847;51.984;5.088;2023-03-23T01:16:37;14.10;81.00
69626;DHT22;56847;51.984;5.088;2023-03-23T01:19:03;14.10;81.00
69626;DHT22;56847;51.984;5.088;2023-03-23T01:21:29;14.10;81.10
69626;DHT22;56847;51.984;5.088;2023-03-23T01:23:55;14.10;80.60
69626;DHT22;56847;51.984;5.088;2023-03-23T01:26:24;14.10;80.40
69626;DHT22;56847;51.984;5.088;2023-03-23T01:28:50;14.10;80.40
69626;DHT22;56847;51.984;5.088;2023-03-23T01:31:19;14.10;80.80
69626;DHT22;56847;51.984;5.088;2023-03-23T01:33:46;14.10;80.50
69626;DHT22;56847;51.984;5.088;2023-03-23T01:36:14;14.10;80.50
69626;DHT22;56847;51.984;5.088;2023-03-23T01:38:43;14.10;80.50
69626;DHT22;56847;51.984;5.088;2023-03-23T01:41:11;14.10;80.50
69626;DHT22;56847;51.984;5.088;2023-03-23T01:47:04;14.10;80.40
69626;DHT22;56847;51.984;5.088;2023-03-23T01:49:37;14.10;80.30
69626;DHT22;56847;51.984;5.088;2023-03-23T01:52:12;14.10;80.40
69626;DHT22;56847;51.984;5.088;2023-03-23T01:54:45;14.10;80.50
69626;DHT22;56847;51.984;5.088;2023-03-23T01:57:17;14.10;80.30
69626;DHT22;56847;51.984;5.088;2023-03-23T01:59:49;14.10;80.30
69626;DHT22;56847;51.984;5.088;2023-03-23T02:02:24;14.10;80.30
69626;DHT22;56847;51.984;5.088;2023-03-23T02:04:51;14.10;80.40
69626;DHT22;56847;51.984;5.088;2023-03-23T02:07:24;14.10;80.60
69626;DHT22;56847;51.984;5.088;2023-03-23T02:09:51;14.10;80.50
69626;DHT22;56847;51.984;5.088;2023-03-23T02:12:18;14.10;80.50
69626;DHT22;56847;51.984;5.088;2023-03-23T02:14:45;14.20;80.50
69626;DHT22;56847;51.984;5.088;2023-03-23T02:17:38;14.20;80.50
69626;DHT22;56847;51.984;5.088;2023-03-23T02:23:04;14.20;79.70
69626;DHT22;56847;51.984;5.088;2023-03-23T02:25:48;14.20;79.80
69626;DHT22;56847;51.984;5.088;2023-03-23T02:28:55;14.20;79.90
69626;DHT22;56847;51.984;5.088;2023-03-23T02:34:27;14.30;78.90
69626;DHT22;56847;51.984;5.088;2023-03-23T02:37:02;14.30;79.00
69626;DHT22;56847;51.984;5.088;2023-03-23T02:39:32;14.30;79.30
69626;DHT22;56847;51.984;5.088;2023-03-23T02:42:04;14.40;79.30
69626;DHT22;56847;51.984;5.088;2023-03-23T02:44:31;14.40;78.80
69626;DHT22;56847;51.984;5.088;2023-03-23T02:46:59;14.40;79.00
69626;DHT22;56847;51.984;5.088;2023-03-23T02:49:28;14.40;78.50
69626;DHT22;56847;51.984;5.088;2023-03-23T02:51:58;14.40;78.60
69626;DHT22;56847;51.984;5.088;2023-03-23T02:54:26;14.40;78.10
69626;DHT22;56847;51.984;5.088;2023-03-23T02:56:54;14.40;77.60
69626;DHT22;56847;51.984;5.088;2023-03-23T02:59:26;14.50;77.80
69626;DHT22;56847;51.984;5.088;2023-03-23T03:01:57;14.50;77.10
69626;DHT22;56847;51.984;5.088;2023-03-23T03:04:26;14.50;76.60
69626;DHT22;56847;51.984;5.088;2023-03-23T03:12:24;14.50;76.40
69626;DHT22;56847;51.984;5.088;2023-03-23T03:17:44;14.50;76.10
69626;DHT22;56847;51.984;5.088;2023-03-23T03:20:12;14.50;76.10
69626;DHT22;56847;51.984;5.088;2023-03-23T03:22:44;14.50;75.90
69626;DHT22;56847;51.984;5.088;2023-03-23T03:25:12;14.50;75.80
69626;DHT22;56847;51.984;5.088;2023-03-23T03:27:44;14.60;76.10
69626;DHT22;56847;51.984;5.088;2023-03-23T03:30:21;14.60;75.90
69626;DHT22;56847;51.984;5.088;2023-03-23T03:32:50;14.60;75.90
69626;DHT22;56847;51.984;5.088;2023-03-23T03:35:21;14.60;75.90
69626;DHT22;56847;51.984;5.088;2023-03-23T03:37:49;14.60;75.50
69626;DHT22;56847;51.984;5.088;2023-03-23T03:40:19;14.60;75.40
69626;DHT22;56847;51.984;5.088;2023-03-23T03:42:46;14.60;75.60
69626;DHT22;56847;51.984;5.088;2023-03-23T03:45:15;14.60;75.10
69626;DHT22;56847;51.984;5.088;2023-03-23T03:47:41;14.60;75.30
69626;DHT22;56847;51.984;5.088;2023-03-23T03:50:08;14.60;75.50
69626;DHT22;56847;51.984;5.088;2023-03-23T03:52:34;14.60;75.40
69626;DHT22;56847;51.984;5.088;2023-03-23T03:55:00;14.60;74.90
69626;DHT22;56847;51.984;5.088;2023-03-23T03:57:28;14.60;74.60
69626;DHT22;56847;51.984;5.088;2023-03-23T03:59:56;14.60;74.50
69626;DHT22;56847;51.984;5.088;2023-03-23T04:02:43;14.60;74.90
69626;DHT22;56847;51.984;5.088;2023-03-23T04:05:11;14.60;74.30
69626;DHT22;56847;51.984;5.088;2023-03-23T04:07:37;14.60;74.30
69626;DHT22;56847;51.984;5.088;2023-03-23T04:10:10;14.70;74.40
69626;DHT22;56847;51.984;5.088;2023-03-23T04:12:39;14.60;74.10
69626;DHT22;56847;51.984;5.088;2023-03-23T04:15:24;14.60;73.70
69626;DHT22;56847;51.984;5.088;2023-03-23T04:17:50;14.70;73.80
69626;DHT22;56847;51.984;5.088;2023-03-23T04:20:16;14.60;73.80
69626;DHT22;56847;51.984;5.088;2023-03-23T04:22:48;14.60;73.50
69626;DHT22;56847;51.984;5.088;2023-03-23T04:25:19;14.60;73.30
69626;DHT22;56847;51.984;5.088;2023-03-23T04:27:51;14.60;73.00
69626;DHT22;56847;51.984;5.088;2023-03-23T04:30:26;14.60;72.90
69626;DHT22;56847;51.984;5.088;2023-03-23T04:33:07;14.60;73.00
69626;DHT22;56847;51.984;5.088;2023-03-23T04:35:34;14.60;73.00
69626;DHT22;56847;51.984;5.088;2023-03-23T04:38:15;14.60;72.90
69626;DHT22;56847;51.984;5.088;2023-03-23T04:40:47;14.50;73.00
69626;DHT22;56847;51.984;5.088;2023-03-23T04:43:23;14.50;73.50
69626;DHT22;56847;51.984;5.088;2023-03-23T04:45:59;14.50;73.20
69626;DHT22;56847;51.984;5.088;2023-03-23T04:48:31;14.50;73.00
69626;DHT22;56847;51.984;5.088;2023-03-23T04:51:08;14.50;73.50
69626;DHT22;56847;51.984;5.088;2023-03-23T04:53:35;14.50;73.50
69626;DHT22;56847;51.984;5.088;2023-03-23T04:56:02;14.30;73.90
69626;DHT22;56847;51.984;5.088;2023-03-23T04:58:33;14.20;74.60
69626;DHT22;56847;51.984;5.088;2023-03-23T05:01:08;14.00;75.20
69626;DHT22;56847;51.984;5.088;2023-03-23T05:03:42;14.00;75.70
69626;DHT22;56847;51.984;5.088;2023-03-23T05:06:09;13.90;75.90
69626;DHT22;56847;51.984;5.088;2023-03-23T05:08:36;13.90;76.50
69626;DHT22;56847;51.984;5.088;2023-03-23T05:11:06;13.90;76.80
69626;DHT22;56847;51.984;5.088;2023-03-23T05:13:35;13.90;76.90
69626;DHT22;56847;51.984;5.088;2023-03-23T05:16:05;13.80;77.00
69626;DHT22;56847;51.984;5.088;2023-03-23T05:18:32;13.80;77.40
69626;DHT22;56847;51.984;5.088;2023-03-23T05:21:02;13.70;78.00
69626;DHT22;56847;51.984;5.088;2023-03-23T05:23:31;13.50;78.70
69626;DHT22;56847;51.984;5.088;2023-03-23T05:26:05;13.40;79.30
69626;DHT22;56847;51.984;5.088;2023-03-23T05:28:32;13.40;79.70
69626;DHT22;56847;51.984;5.088;2023-03-23T05:31:24;13.40;80.10
69626;DHT22;56847;51.984;5.088;2023-03-23T05:33:51;13.40;80.20
69626;DHT22;56847;51.984;5.088;2023-03-23T05:36:43;13.40;80.20
69626;DHT22;56847;51.984;5.088;2023-03-23T05:39:30;13.40;80.00
69626;DHT22;56847;51.984;5.088;2023-03-23T05:42:17;13.50;80.20
69626;DHT22;56847;51.984;5.088;2023-03-23T05:44:49;13.50;80.30
69626;DHT22;56847;51.984;5.088;2023-03-23T06:20:03;13.40;81.40
69626;DHT22;56847;51.984;5.088;2023-03-23T06:22:30;13.40;81.50
69626;DHT22;56847;51.984;5.088;2023-03-23T06:25:08;13.50;81.30
69626;DHT22;56847;51.984;5.088;2023-03-23T06:27:38;13.50;80.90
69626;DHT22;56847;51.984;5.088;2023-03-23T06:30:05;13.50;80.90
69626;DHT22;56847;51.984;5.088;2023-03-23T06:32:32;13.40;81.10
69626;DHT22;56847;51.984;5.088;2023-03-23T06:35:00;13.40;81.40
69626;DHT22;56847;51.984;5.088;2023-03-23T06:37:52;13.40;81.40
69626;DHT22;56847;51.984;5.088;2023-03-23T06:40:30;13.40;81.40
69626;DHT22;56847;51.984;5.088;2023-03-23T06:42:59;13.40;81.10
69626;DHT22;56847;51.984;5.088;2023-03-23T06:45:28;13.40;81.40
69626;DHT22;56847;51.984;5.088;2023-03-23T06:48:14;13.40;81.50
69626;DHT22;56847;51.984;5.088;2023-03-23T06:50:44;13.40;82.00
69626;DHT22;56847;51.984;5.088;2023-03-23T06:53:12;13.40;81.60
69626;DHT22;56847;51.984;5.088;2023-03-23T06:55:38;13.40;81.80
69626;DHT22;56847;51.984;5.088;2023-03-23T06:58:05;13.40;81.50
69626;DHT22;56847;51.984;5.088;2023-03-23T07:00:32;13.40;81.50
69626;DHT22;56847;51.984;5.088;2023-03-23T07:02:58;13.50;81.30
69626;DHT22;56847;51.984;5.088;2023-03-23T07:05:24;13.60;80.80
69626;DHT22;56847;51.984;5.088;2023-03-23T07:07:51;13.60;80.60
69626;DHT22;56847;51.984;5.088;2023-03-23T07:10:55;13.70;80.60
69626;DHT22;56847;51.984;5.088;2023-03-23T07:13:26;13.70;79.80
69626;DHT22;56847;51.984;5.088;2023-03-23T07:15:57;13.70;79.30
69626;DHT22;56847;51.984;5.088;2023-03-23T07:18:23;13.70;79.30
69626;DHT22;56847;51.984;5.088;2023-03-23T07:20:52;13.70;79.20
69626;DHT22;56847;51.984;5.088;2023-03-23T07:23:21;13.70;79.90
69626;DHT22;56847;51.984;5.088;2023-03-23T07:25:58;13.80;79.90
69626;DHT22;56847;51.984;5.088;2023-03-23T07:28:31;13.90;79.90
69626;DHT22;56847;51.984;5.088;2023-03-23T07:31:04;13.90;79.90
69626;DHT22;56847;51.984;5.088;2023-03-23T07:33:30;14.00;80.10
69626;DHT22;56847;51.984;5.088;2023-03-23T07:36:01;14.10;80.40
69626;DHT22;56847;51.984;5.088;2023-03-23T07:38:29;14.20;80.40
69626;DHT22;56847;51.984;5.088;2023-03-23T07:40:57;14.20;79.80
69626;DHT22;56847;51.984;5.088;2023-03-23T07:43:24;14.20;79.80
69626;DHT22;56847;51.984;5.088;2023-03-23T07:46:08;14.20;79.90
69626;DHT22;56847;51.984;5.088;2023-03-23T07:49:03;14.20;79.70
69626;DHT22;56847;51.984;5.088;2023-03-23T07:51:37;14.20;79.60
69626;DHT22;56847;51.984;5.088;2023-03-23T07:54:09;14.20;80.40
69626;DHT22;56847;51.984;5.088;2023-03-23T07:56:59;14.30;79.70
69626;DHT22;56847;51.984;5.088;2023-03-23T07:59:29;14.20;79.30
69626;DHT22;56847;51.984;5.088;2023-03-23T08:01:57;14.20;79.90
69626;DHT22;56847;51.984;5.088;2023-03-23T08:04:44;14.10;79.50
69626;DHT22;56847;51.984;5.088;2023-03-23T08:07:20;14.00;79.90
69626;DHT22;56847;51.984;5.088;2023-03-23T08:10:01;14.00;80.20
69626;DHT22;56847;51.984;5.088;2023-03-23T08:12:44;14.00;80.70
69626;DHT22;56847;51.984;5.088;2023-03-23T08:15:31;14.10;81.30
69626;DHT22;56847;51.984;5.088;2023-03-23T08:17:58;14.30;81.20
69626;DHT22;56847;51.984;5.088;2023-03-23T08:20:43;14.50;81.50
69626;DHT22;56847;51.984;5.088;2023-03-23T08:23:31;14.70;80.60
69626;DHT22;56847;51.984;5.088;2023-03-23T08:25:58;14.80;80.30
69626;DHT22;56847;51.984;5.088;2023-03-23T08:28:53;14.90;79.50
69626;DHT22;56847;51.984;5.088;2023-03-23T08:31:39;14.80;79.10
69626;DHT22;56847;51.984;5.088;2023-03-23T08:34:23;15.00;80.20
69626;DHT22;56847;51.984;5.088;2023-03-23T08:37:10;15.10;79.20
69626;DHT22;56847;51.984;5.088;2023-03-23T08:39:58;15.10;77.40
69626;DHT22;56847;51.984;5.088;2023-03-23T08:42:42;15.00;78.30
69626;DHT22;56847;51.984;5.088;2023-03-23T08:45:27;15.00;78.50
69626;DHT22;56847;51.984;5.088;2023-03-23T08:48:16;15.20;78.80
69626;DHT22;56847;51.984;5.088;2023-03-23T08:51:08;15.10;78.20
69626;DHT22;56847;51.984;5.088;2023-03-23T08:53:36;15.10;78.10
69626;DHT22;56847;51.984;5.088;2023-03-23T08:56:21;15.20;77.70
69626;DHT22;56847;51.984;5.088;2023-03-23T08:59:07;15.30;77.60
69626;DHT22;56847;51.984;5.088;2023-03-23T09:01:44;15.30;77.10
69626;DHT22;56847;51.984;5.088;2023-03-23T09:04:40;15.40;76.80
69626;DHT22;56847;51.984;5.088;2023-03-23T09:07:28;15.40;76.00
69626;DHT22;56847;51.984;5.088;2023-03-23T09:10:00;15.50;76.50
69626;DHT22;56847;51.984;5.088;2023-03-23T09:12:26;15.70;75.90
69626;DHT22;56847;51.984;5.088;2023-03-23T09:14:52;15.60;74.90
69626;DHT22;56847;51.984;5.088;2023-03-23T09:17:18;15.70;74.40
69626;DHT22;56847;51.984;5.088;2023-03-23T09:19:44;15.70;73.70
69626;DHT22;56847;51.984;5.088;2023-03-23T09:22:09;15.70;74.20
69626;DHT22;56847;51.984;5.088;2023-03-23T09:24:35;15.80;74.40
69626;DHT22;56847;51.984;5.088;2023-03-23T09:27:02;16.00;74.10
69626;DHT22;56847;51.984;5.088;2023-03-23T09:29:31;15.90;72.20
69626;DHT22;56847;51.984;5.088;2023-03-23T09:32:02;16.00;72.70
69626;DHT22;56847;51.984;5.088;2023-03-23T09:34:28;16.10;74.00
69626;DHT22;56847;51.984;5.088;2023-03-23T09:36:54;16.20;72.50
69626;DHT22;56847;51.984;5.088;2023-03-23T09:39:20;16.30;72.10
69626;DHT22;56847;51.984;5.088;2023-03-23T09:50:30;16.60;70.10
69626;DHT22;56847;51.984;5.088;2023-03-23T09:53:04;16.60;70.00
69626;DHT22;56847;51.984;5.088;2023-03-23T09:55:34;16.60;67.70
69626;DHT22;56847;51.984;5.088;2023-03-23T10:00:59;16.50;68.30
69626;DHT22;56847;51.984;5.088;2023-03-23T10:03:32;16.50;68.30
69626;DHT22;56847;51.984;5.088;2023-03-23T10:06:01;16.60;69.00
69626;DHT22;56847;51.984;5.088;2023-03-23T10:08:30;16.70;68.00
69626;DHT22;56847;51.984;5.088;2023-03-23T10:11:16;16.60;68.10
69626;DHT22;56847;51.984;5.088;2023-03-23T10:16:32;16.40;68.50
69626;DHT22;56847;51.984;5.088;2023-03-23T10:19:15;16.50;67.50
69626;DHT22;56847;51.984;5.088;2023-03-23T10:21:56;16.60;67.00
69626;DHT22;56847;51.984;5.088;2023-03-23T10:24:45;16.70;67.20
69626;DHT22;56847;51.984;5.088;2023-03-23T10:27:23;16.70;64.40
69626;DHT22;56847;51.984;5.088;2023-03-23T10:32:53;16.50;64.20
69626;DHT22;56847;51.984;5.088;2023-03-23T10:35:32;16.40;65.20
69626;DHT22;56847;51.984;5.088;2023-03-23T10:38:06;16.50;66.30
69626;DHT22;56847;51.984;5.088;2023-03-23T10:40:44;16.60;64.30
69626;DHT22;56847;51.984;5.088;2023-03-23T10:43:14;16.70;65.00
69626;DHT22;56847;51.984;5.088;2023-03-23T10:45:47;16.70;63.20
69626;DHT22;56847;51.984;5.088;2023-03-23T10:48:37;16.70;63.80
69626;DHT22;56847;51.984;5.088;2023-03-23T10:51:11;16.70;64.20
69626;DHT22;56847;51.984;5.088;2023-03-23T10:53:43;16.80;64.40
69626;DHT22;56847;51.984;5.088;2023-03-23T10:56:29;17.20;64.20
69626;DHT22;56847;51.984;5.088;2023-03-23T10:59:13;17.40;62.50
69626;DHT22;56847;51.984;5.088;2023-03-23T11:01:43;17.60;61.10
69626;DHT22;56847;51.984;5.088;2023-03-23T11:04:16;17.70;61.50
69626;DHT22;56847;51.984;5.088;2023-03-23T11:06:47;17.60;60.20
69626;DHT22;56847;51.984;5.088;2023-03-23T11:09:16;17.50;60.20
69626;DHT22;56847;51.984;5.088;2023-03-23T11:11:49;17.60;59.70
69626;DHT22;56847;51.984;5.088;2023-03-23T11:14:27;17.60;59.40
69626;DHT22;56847;51.984;5.088;2023-03-23T11:17:04;17.70;60.50
69626;DHT22;56847;51.984;5.088;2023-03-23T11:19:35;17.80;61.20
69626;DHT22;56847;51.984;5.088;2023-03-23T11:24:39;17.60;60.30
69626;DHT22;56847;51.984;5.088;2023-03-23T11:27:07;17.40;60.50
69626;DHT22;56847;51.984;5.088;2023-03-23T11:29:36;17.30;59.90
69626;DHT22;56847;51.984;5.088;2023-03-23T11:32:06;17.20;60.50
69626;DHT22;56847;51.984;5.088;2023-03-23T11:34:43;17.30;60.60
69626;DHT22;56847;51.984;5.088;2023-03-23T11:37:14;17.20;60.40
69626;DHT22;56847;51.984;5.088;2023-03-23T11:39:48;17.10;61.20
69626;DHT22;56847;51.984;5.088;2023-03-23T11:42:26;16.80;62.50
69626;DHT22;56847;51.984;5.088;2023-03-23T11:48:25;16.20;66.50
69626;DHT22;56847;51.984;5.088;2023-03-23T11:51:04;16.00;68.50
69626;DHT22;56847;51.984;5.088;2023-03-23T11:53:48;16.00;70.50
69626;DHT22;56847;51.984;5.088;2023-03-23T11:56:35;16.10;70.30
69626;DHT22;56847;51.984;5.088;2023-03-23T11:59:03;16.20;71.40
69626;DHT22;56847;51.984;5.088;2023-03-23T12:01:48;16.30;70.70
69626;DHT22;56847;51.984;5.088;2023-03-23T12:15:57;16.70;69.40
69626;DHT22;56847;51.984;5.088;2023-03-23T12:18:36;17.10;68.40
69626;DHT22;56847;51.984;5.088;2023-03-23T12:21:18;17.50;66.20
69626;DHT22;56847;51.984;5.088;2023-03-23T12:26:36;17.80;66.30
69626;DHT22;56847;51.984;5.088;2023-03-23T12:29:33;18.00;63.60
69626;DHT22;56847;51.984;5.088;2023-03-23T12:32:23;18.00;61.50
69626;DHT22;56847;51.984;5.088;2023-03-23T12:48:45;17.40;62.80
69626;DHT22;56847;51.984;5.088;2023-03-23T12:51:27;17.60;63.60
69626;DHT22;56847;51.984;5.088;2023-03-23T12:59:51;17.70;60.00
69626;DHT22;56847;51.984;5.088;2023-03-23T13:05:03;17.50;60.40
69626;DHT22;56847;51.984;5.088;2023-03-23T13:07:35;17.40;61.10
69626;DHT22;56847;51.984;5.088;2023-03-23T13:10:21;17.40;60.70
69626;DHT22;56847;51.984;5.088;2023-03-23T13:12:49;17.40;61.60
69626;DHT22;56847;51.984;5.088;2023-03-23T13:23:56;17.60;63.40
69626;DHT22;56847;51.984;5.088;2023-03-23T13:26:23;17.70;63.70
69626;DHT22;56847;51.984;5.088;2023-03-23T13:29:14;17.70;63.20
69626;DHT22;56847;51.984;5.088;2023-03-23T13:31:44;17.80;62.50
69626;DHT22;56847;51.984;5.088;2023-03-23T13:34:23;17.80;62.30
69626;DHT22;56847;51.984;5.088;2023-03-23T13:36:58;17.70;61.50
69626;DHT22;56847;51.984;5.088;2023-03-23T13:39:26;17.60;61.70
69626;DHT22;56847;51.984;5.088;2023-03-23T13:42:28;17.50;61.80
69626;DHT22;56847;51.984;5.088;2023-03-23T13:45:17;17.50;63.20
69626;DHT22;56847;51.984;5.088;2023-03-23T13:47:44;17.40;63.50
69626;DHT22;56847;51.984;5.088;2023-03-23T13:57:58;16.90;65.60
69626;DHT22;56847;51.984;5.088;2023-03-23T14:01:03;16.70;67.90
69626;DHT22;56847;51.984;5.088;2023-03-23T14:03:40;16.70;69.30
69626;DHT22;56847;51.984;5.088;2023-03-23T14:06:14;16.70;69.40
69626;DHT22;56847;51.984;5.088;2023-03-23T14:12:25;16.90;68.30
69626;DHT22;56847;51.984;5.088;2023-03-23T14:14:56;16.90;68.00
69626;DHT22;56847;51.984;5.088;2023-03-23T14:17:31;16.90;68.80
69626;DHT22;56847;51.984;5.088;2023-03-23T14:19:59;17.10;68.10
69626;DHT22;56847;51.984;5.088;2023-03-23T14:22:37;17.20;67.80
69626;DHT22;56847;51.984;5.088;2023-03-23T14:25:17;17.30;66.20
69626;DHT22;56847;51.984;5.088;2023-03-23T14:27:46;17.50;64.40
69626;DHT22;56847;51.984;5.088;2023-03-23T14:30:21;17.60;62.60
69626;DHT22;56847;51.984;5.088;2023-03-23T14:32:48;17.60;63.60
69626;DHT22;56847;51.984;5.088;2023-03-23T14:35:32;17.70;63.00
69626;DHT22;56847;51.984;5.088;2023-03-23T14:37:58;17.90;62.80
69626;DHT22;56847;51.984;5.088;2023-03-23T14:40:27;18.00;63.30
69626;DHT22;56847;51.984;5.088;2023-03-23T14:42:53;18.20;61.40
69626;DHT22;56847;51.984;5.088;2023-03-23T14:45:22;18.20;61.00
69626;DHT22;56847;51.984;5.088;2023-03-23T14:48:01;18.20;62.20
69626;DHT22;56847;51.984;5.088;2023-03-23T14:50:41;18.20;61.10
69626;DHT22;56847;51.984;5.088;2023-03-23T14:53:23;18.30;60.80
69626;DHT22;56847;51.984;5.088;2023-03-23T14:55:52;18.40;60.90
69626;DHT22;56847;51.984;5.088;2023-03-23T14:58:22;18.40;59.80
69626;DHT22;56847;51.984;5.088;2023-03-23T15:03:21;18.60;60.00
69626;DHT22;56847;51.984;5.088;2023-03-23T15:05:54;18.60;59.00
69626;DHT22;56847;51.984;5.088;2023-03-23T15:08:30;18.60;60.30
69626;DHT22;56847;51.984;5.088;2023-03-23T15:11:04;18.60;60.60
69626;DHT22;56847;51.984;5.088;2023-03-23T15:13:32;18.60;59.80
69626;DHT22;56847;51.984;5.088;2023-03-23T15:16:19;18.60;59.70
69626;DHT22;56847;51.984;5.088;2023-03-23T15:19:05;18.50;59.30
69626;DHT22;56847;51.984;5.088;2023-03-23T15:21:50;18.70;60.60
69626;DHT22;56847;51.984;5.088;2023-03-23T15:24:31;19.00;59.80
69626;DHT22;56847;51.984;5.088;2023-03-23T15:29:47;19.00;58.90
69626;DHT22;56847;51.984;5.088;2023-03-23T15:34:49;18.90;58.30
69626;DHT22;56847;51.984;5.088;2023-03-23T15:37:29;18.90;57.40
69626;DHT22;56847;51.984;5.088;2023-03-23T15:39:57;19.00;57.60
69626;DHT22;56847;51.984;5.088;2023-03-23T15:42:33;19.00;57.20
69626;DHT22;56847;51.984;5.088;2023-03-23T15:50:16;18.80;57.80
69626;DHT22;56847;51.984;5.088;2023-03-23T15:52:43;18.90;57.60
69626;DHT22;56847;51.984;5.088;2023-03-23T15:57:53;18.90;58.00
69626;DHT22;56847;51.984;5.088;2023-03-23T16:00:22;19.00;58.00
69626;DHT22;56847;51.984;5.088;2023-03-23T16:02:55;19.00;57.50
69626;DHT22;56847;51.984;5.088;2023-03-23T16:05:23;19.00;58.10
69626;DHT22;56847;51.984;5.088;2023-03-23T16:07:53;19.00;58.70
69626;DHT22;56847;51.984;5.088;2023-03-23T16:10:22;19.10;58.50
69626;DHT22;56847;51.984;5.088;2023-03-23T16:12:49;19.10;58.60
69626;DHT22;56847;51.984;5.088;2023-03-23T16:15:16;19.10;58.70
69626;DHT22;56847;51.984;5.088;2023-03-23T16:17:44;19.10;58.90
69626;DHT22;56847;51.984;5.088;2023-03-23T16:22:42;19.00;58.80
69626;DHT22;56847;51.984;5.088;2023-03-23T16:25:09;18.80;58.70
69626;DHT22;56847;51.984;5.088;2023-03-23T16:27:38;18.70;58.80
69626;DHT22;56847;51.984;5.088;2023-03-23T16:30:17;18.60;59.10
69626;DHT22;56847;51.984;5.088;2023-03-23T16:32:44;18.50;59.10
69626;DHT22;56847;51.984;5.088;2023-03-23T16:35:13;18.40;59.10
69626;DHT22;56847;51.984;5.088;2023-03-23T16:37:49;18.40;59.50
69626;DHT22;56847;51.984;5.088;2023-03-23T16:40:35;18.40;59.60
69626;DHT22;56847;51.984;5.088;2023-03-23T16:43:05;18.30;59.70
69626;DHT22;56847;51.984;5.088;2023-03-23T16:45:40;18.20;59.70
69626;DHT22;56847;51.984;5.088;2023-03-23T16:48:11;18.20;59.70
69626;DHT22;56847;51.984;5.088;2023-03-23T16:50:39;18.10;59.80
69626;DHT22;56847;51.984;5.088;2023-03-23T16:53:10;18.10;59.90
69626;DHT22;56847;51.984;5.088;2023-03-23T16:55:38;18.10;59.60
69626;DHT22;56847;51.984;5.088;2023-03-23T16:58:05;18.00;59.30
69626;DHT22;56847;51.984;5.088;2023-03-23T17:00:46;18.00;59.80
69626;DHT22;56847;51.984;5.088;2023-03-23T17:03:14;17.90;59.80
69626;DHT22;56847;51.984;5.088;2023-03-23T17:05:47;17.90;59.90
69626;DHT22;56847;51.984;5.088;2023-03-23T17:08:15;17.90;60.00
69626;DHT22;56847;51.984;5.088;2023-03-23T17:10:43;17.80;60.10
69626;DHT22;56847;51.984;5.088;2023-03-23T17:13:10;17.70;59.90
69626;DHT22;56847;51.984;5.088;2023-03-23T17:15:41;17.70;59.90
69626;DHT22;56847;51.984;5.088;2023-03-23T17:18:12;17.60;60.10
69626;DHT22;56847;51.984;5.088;2023-03-23T17:20:42;17.60;60.30
69626;DHT22;56847;51.984;5.088;2023-03-23T17:23:09;17.50;60.30
69626;DHT22;56847;51.984;5.088;2023-03-23T17:25:43;17.50;60.60
69626;DHT22;56847;51.984;5.088;2023-03-23T17:28:11;17.40;60.60
69626;DHT22;56847;51.984;5.088;2023-03-23T17:30:42;17.40;60.80
69626;DHT22;56847;51.984;5.088;2023-03-23T17:33:10;17.40;61.10
69626;DHT22;56847;51.984;5.088;2023-03-23T17:35:37;17.30;61.40
69626;DHT22;56847;51.984;5.088;2023-03-23T17:38:05;17.30;61.60
69626;DHT22;56847;51.984;5.088;2023-03-23T17:40:32;17.20;61.80
69626;DHT22;56847;51.984;5.088;2023-03-23T17:42:59;17.20;62.00
69626;DHT22;56847;51.984;5.088;2023-03-23T17:45:26;17.10;62.20
69626;DHT22;56847;51.984;5.088;2023-03-23T17:47:56;17.10;62.40
69626;DHT22;56847;51.984;5.088;2023-03-23T17:50:23;17.00;62.80
69626;DHT22;56847;51.984;5.088;2023-03-23T17:52:50;17.00;63.00
69626;DHT22;56847;51.984;5.088;2023-03-23T17:55:20;17.00;63.20
69626;DHT22;56847;51.984;5.088;2023-03-23T17:57:48;17.00;63.40
69626;DHT22;56847;51.984;5.088;2023-03-23T18:00:17;17.00;63.50
69626;DHT22;56847;51.984;5.088;2023-03-23T18:02:44;16.90;63.80
69626;DHT22;56847;51.984;5.088;2023-03-23T18:05:12;16.90;63.90
69626;DHT22;56847;51.984;5.088;2023-03-23T18:07:40;16.90;64.10
69626;DHT22;56847;51.984;5.088;2023-03-23T18:10:07;16.90;64.10
69626;DHT22;56847;51.984;5.088;2023-03-23T18:12:40;16.80;64.20
69626;DHT22;56847;51.984;5.088;2023-03-23T18:15:08;16.80;64.50
69626;DHT22;56847;51.984;5.088;2023-03-23T18:17:38;16.80;64.70
69626;DHT22;56847;51.984;5.088;2023-03-23T18:20:06;16.70;65.00
69626;DHT22;56847;51.984;5.088;2023-03-23T18:22:35;16.70;65.10
69626;DHT22;56847;51.984;5.088;2023-03-23T18:25:02;16.70;65.30
69626;DHT22;56847;51.984;5.088;2023-03-23T18:27:31;16.70;65.50
69626;DHT22;56847;51.984;5.088;2023-03-23T18:30:01;16.60;65.90
69626;DHT22;56847;51.984;5.088;2023-03-23T18:32:30;16.60;66.20
69626;DHT22;56847;51.984;5.088;2023-03-23T18:34:57;16.60;66.70
69626;DHT22;56847;51.984;5.088;2023-03-23T18:37:25;16.50;66.80